EJA157 KCOU-KCPS
Flight info
| Callsign | EJA157 |
|---|---|
| Flight time | 0h 23m |
| Altitude | 13000 |
| Route | DIXEE DIXEE3 |
| Aircraft | C25C/M-L/C |
Departure
| Time | 2026-05-05 21:56 |
|---|---|
| Airport | Columbia Regional Airport (KCOU) |
Arrival
| Time | 2026-05-05 22:19 |
|---|---|
| Airport | St Louis Downtown Airport (KCPS) |
| Time | Latitude | Longitude | Altitude | Speed | Heading |
|---|---|---|---|---|---|
| 2026-05-05 21:42 | 38.81882 | -92.22025 | 888 ft | 0 kts | 285° |
| 2026-05-05 21:49 | 38.81882 | -92.22011 | 888 ft | 2 kts | 245° |
| 2026-05-05 21:49 | 38.81891 | -92.21999 | 888 ft | 0 kts | 198° |
| 2026-05-05 21:52 | 38.81884 | -92.21937 | 888 ft | 10 kts | 99° |
| 2026-05-05 21:52 | 38.81818 | -92.21875 | 888 ft | 18 kts | 196° |
| 2026-05-05 21:52 | 38.81674 | -92.21946 | 888 ft | 27 kts | 201° |
| 2026-05-05 21:53 | 38.81502 | -92.22032 | 888 ft | 25 kts | 201° |
| 2026-05-05 21:53 | 38.81354 | -92.22105 | 887 ft | 21 kts | 201° |
| 2026-05-05 21:53 | 38.81232 | -92.22166 | 887 ft | 17 kts | 202° |
| 2026-05-05 21:53 | 38.81133 | -92.22218 | 886 ft | 14 kts | 202° |
| 2026-05-05 21:54 | 38.81086 | -92.22203 | 886 ft | 0 kts | 117° |
| 2026-05-05 21:55 | 38.81083 | -92.22192 | 886 ft | 6 kts | 111° |
| 2026-05-05 21:55 | 38.81071 | -92.22099 | 885 ft | 13 kts | 40° |
| 2026-05-05 21:56 | 38.81376 | -92.21946 | 889 ft | 97 kts | 21° |
| 2026-05-05 21:56 | 38.82217 | -92.21539 | 1435 ft | 153 kts | 21° |
| 2026-05-05 21:56 | 38.83349 | -92.21040 | 2425 ft | 199 kts | 20° |
| 2026-05-05 21:56 | 38.84745 | -92.20232 | 3383 ft | 236 kts | 34° |
| 2026-05-05 21:57 | 38.85894 | -92.18672 | 4341 ft | 243 kts | 51° |
| 2026-05-05 21:57 | 38.86445 | -92.16591 | 5277 ft | 253 kts | 82° |
| 2026-05-05 21:57 | 38.86222 | -92.14332 | 6216 ft | 263 kts | 108° |
| 2026-05-05 21:57 | 38.85573 | -92.12128 | 7104 ft | 272 kts | 110° |
| 2026-05-05 21:58 | 38.84906 | -92.09811 | 8028 ft | 281 kts | 114° |
| 2026-05-05 21:58 | 38.84182 | -92.07445 | 8968 ft | 289 kts | 115° |
| 2026-05-05 21:58 | 38.83444 | -92.04984 | 9929 ft | 301 kts | 116° |
| 2026-05-05 21:58 | 38.82686 | -92.02420 | 10810 ft | 316 kts | 116° |
| 2026-05-05 21:59 | 38.81867 | -91.99675 | 11725 ft | 342 kts | 116° |
| 2026-05-05 21:59 | 38.80999 | -91.96771 | 12646 ft | 364 kts | 116° |
| 2026-05-05 21:59 | 38.80053 | -91.93598 | 12941 ft | 394 kts | 116° |
| 2026-05-05 21:59 | 38.79083 | -91.90323 | 12941 ft | 390 kts | 115° |
| 2026-05-05 22:00 | 38.78120 | -91.87077 | 12941 ft | 387 kts | 116° |
| 2026-05-05 22:00 | 38.77152 | -91.83854 | 12943 ft | 387 kts | 116° |
| 2026-05-05 22:00 | 38.76179 | -91.80625 | 12942 ft | 388 kts | 116° |
| 2026-05-05 22:00 | 38.75209 | -91.77386 | 12943 ft | 390 kts | 116° |
| 2026-05-05 22:01 | 38.74242 | -91.74163 | 12940 ft | 392 kts | 116° |
| 2026-05-05 22:01 | 38.73258 | -91.70890 | 12944 ft | 393 kts | 116° |
| 2026-05-05 22:01 | 38.72268 | -91.67608 | 12939 ft | 394 kts | 116° |
| 2026-05-05 22:01 | 38.71291 | -91.64360 | 12935 ft | 395 kts | 116° |
| 2026-05-05 22:02 | 38.70292 | -91.61058 | 12941 ft | 396 kts | 116° |
| 2026-05-05 22:02 | 38.69297 | -91.57759 | 12939 ft | 397 kts | 116° |
| 2026-05-05 22:02 | 38.68256 | -91.54482 | 12932 ft | 396 kts | 119° |
| 2026-05-05 22:02 | 38.67060 | -91.51342 | 12933 ft | 395 kts | 122° |
| 2026-05-05 22:03 | 38.65778 | -91.48231 | 12933 ft | 395 kts | 123° |
| 2026-05-05 22:03 | 38.64464 | -91.45128 | 12931 ft | 395 kts | 124° |
| 2026-05-05 22:03 | 38.63166 | -91.42065 | 12933 ft | 394 kts | 122° |
| 2026-05-05 22:03 | 38.62133 | -91.38787 | 12921 ft | 399 kts | 113° |
| 2026-05-05 22:04 | 38.61256 | -91.35408 | 12912 ft | 398 kts | 112° |
| 2026-05-05 22:04 | 38.60517 | -91.32004 | 12915 ft | 397 kts | 109° |
| 2026-05-05 22:04 | 38.59820 | -91.28585 | 12911 ft | 395 kts | 110° |
| 2026-05-05 22:04 | 38.59069 | -91.25258 | 12910 ft | 393 kts | 111° |
| 2026-05-05 22:05 | 38.58285 | -91.21893 | 12911 ft | 393 kts | 111° |
| 2026-05-05 22:05 | 38.57530 | -91.18532 | 12908 ft | 393 kts | 110° |
| 2026-05-05 22:05 | 38.56823 | -91.15151 | 12905 ft | 392 kts | 109° |
| 2026-05-05 22:05 | 38.56114 | -91.11811 | 12906 ft | 392 kts | 110° |
| 2026-05-05 22:06 | 38.55385 | -91.08454 | 12905 ft | 392 kts | 110° |
| 2026-05-05 22:06 | 38.54647 | -91.05101 | 12907 ft | 392 kts | 110° |
| 2026-05-05 22:06 | 38.53916 | -91.01732 | 12908 ft | 392 kts | 110° |
| 2026-05-05 22:06 | 38.53197 | -90.98407 | 12905 ft | 392 kts | 110° |
| 2026-05-05 22:07 | 38.52465 | -90.95044 | 12906 ft | 392 kts | 110° |
| 2026-05-05 22:07 | 38.51732 | -90.91691 | 12910 ft | 392 kts | 110° |
| 2026-05-05 22:07 | 38.50996 | -90.88332 | 12908 ft | 392 kts | 110° |
| 2026-05-05 22:07 | 38.50275 | -90.85024 | 12907 ft | 391 kts | 110° |
| 2026-05-05 22:08 | 38.49536 | -90.81664 | 12909 ft | 392 kts | 110° |
| 2026-05-05 22:08 | 38.48801 | -90.78306 | 12907 ft | 392 kts | 110° |
| 2026-05-05 22:08 | 38.48061 | -90.74949 | 12902 ft | 392 kts | 110° |
| 2026-05-05 22:08 | 38.47322 | -90.71589 | 12901 ft | 392 kts | 110° |
| 2026-05-05 22:09 | 38.46592 | -90.68280 | 12901 ft | 392 kts | 110° |
| 2026-05-05 22:09 | 38.45850 | -90.64919 | 12905 ft | 392 kts | 110° |
| 2026-05-05 22:09 | 38.45105 | -90.61553 | 12899 ft | 392 kts | 110° |
| 2026-05-05 22:09 | 38.44369 | -90.58231 | 12902 ft | 392 kts | 110° |
| 2026-05-05 22:10 | 38.43625 | -90.54874 | 12900 ft | 393 kts | 110° |
| 2026-05-05 22:10 | 38.42874 | -90.51498 | 12896 ft | 393 kts | 110° |
| 2026-05-05 22:10 | 38.42136 | -90.48184 | 12906 ft | 392 kts | 110° |
| 2026-05-05 22:10 | 38.41394 | -90.44839 | 12980 ft | 390 kts | 110° |
| 2026-05-05 22:11 | 38.40680 | -90.41620 | 12688 ft | 361 kts | 110° |
| 2026-05-05 22:11 | 38.40018 | -90.38636 | 12022 ft | 339 kts | 110° |
| 2026-05-05 22:11 | 38.39380 | -90.35814 | 11366 ft | 323 kts | 111° |
| 2026-05-05 22:11 | 38.38781 | -90.33137 | 10728 ft | 310 kts | 111° |
| 2026-05-05 22:12 | 38.38188 | -90.30514 | 9960 ft | 304 kts | 111° |
| 2026-05-05 22:12 | 38.37617 | -90.27960 | 9123 ft | 298 kts | 111° |
| 2026-05-05 22:12 | 38.37046 | -90.25439 | 8280 ft | 293 kts | 110° |
| 2026-05-05 22:12 | 38.36490 | -90.22955 | 7467 ft | 289 kts | 110° |
| 2026-05-05 22:13 | 38.35946 | -90.20505 | 6672 ft | 285 kts | 107° |
| 2026-05-05 22:13 | 38.35888 | -90.18002 | 5882 ft | 285 kts | 79° |
| 2026-05-05 22:13 | 38.36645 | -90.15708 | 5182 ft | 279 kts | 55° |
| 2026-05-05 22:13 | 38.38038 | -90.14090 | 4629 ft | 269 kts | 31° |
| 2026-05-05 22:14 | 38.39649 | -90.12985 | 4166 ft | 257 kts | 26° |
| 2026-05-05 22:14 | 38.41215 | -90.11974 | 3695 ft | 246 kts | 25° |
| 2026-05-05 22:14 | 38.42714 | -90.11017 | 3255 ft | 235 kts | 26° |
| 2026-05-05 22:14 | 38.44134 | -90.10086 | 2797 ft | 224 kts | 26° |
| 2026-05-05 22:15 | 38.45473 | -90.09200 | 2343 ft | 214 kts | 25° |
| 2026-05-05 22:15 | 38.46763 | -90.08353 | 2102 ft | 199 kts | 25° |
| 2026-05-05 22:15 | 38.47930 | -90.07586 | 2071 ft | 178 kts | 24° |
| 2026-05-05 22:15 | 38.48964 | -90.06904 | 2059 ft | 161 kts | 25° |
| 2026-05-05 22:16 | 38.49933 | -90.06266 | 2065 ft | 149 kts | 24° |
| 2026-05-05 22:16 | 38.50865 | -90.05929 | 2093 ft | 136 kts | 2° |
| 2026-05-05 22:16 | 38.51826 | -90.06043 | 2050 ft | 140 kts | 345° |
| 2026-05-05 22:16 | 38.52685 | -90.06633 | 1882 ft | 142 kts | 324° |
| 2026-05-05 22:17 | 38.53322 | -90.07616 | 1699 ft | 147 kts | 306° |
| 2026-05-05 22:17 | 38.53856 | -90.08706 | 1496 ft | 139 kts | 308° |
| 2026-05-05 22:17 | 38.54313 | -90.09639 | 1292 ft | 112 kts | 307° |
| 2026-05-05 22:17 | 38.54742 | -90.10505 | 1122 ft | 119 kts | 306° |
| 2026-05-05 22:18 | 38.55205 | -90.11423 | 954 ft | 126 kts | 307° |
| 2026-05-05 22:18 | 38.55681 | -90.12380 | 783 ft | 127 kts | 306° |
| 2026-05-05 22:18 | 38.56124 | -90.13284 | 614 ft | 113 kts | 303° |
| 2026-05-05 22:18 | 38.56528 | -90.14101 | 462 ft | 109 kts | 302° |
| 2026-05-05 22:19 | 38.56890 | -90.14832 | 416 ft | 80 kts | 303° |
| 2026-05-05 22:19 | 38.57129 | -90.15317 | 412 ft | 54 kts | 302° |
| 2026-05-05 22:19 | 38.57294 | -90.15649 | 410 ft | 32 kts | 302° |
| 2026-05-05 22:19 | 38.57375 | -90.15801 | 416 ft | 9 kts | 336° |
| 2026-05-05 22:20 | 38.57460 | -90.15744 | 415 ft | 17 kts | 34° |
| 2026-05-05 22:20 | 38.57542 | -90.15749 | 416 ft | 12 kts | 307° |
| 2026-05-05 22:20 | 38.57598 | -90.15836 | 416 ft | 16 kts | 313° |
| 2026-05-05 22:20 | 38.57676 | -90.15944 | 414 ft | 17 kts | 313° |
| 2026-05-05 22:21 | 38.57691 | -90.16024 | 414 ft | 0 kts | 279° |